createdAt,value
2023-04-02T00:01:45.420Z,4.53
2023-04-02T00:04:34.651Z,4.03
2023-04-02T00:07:33.743Z,5.72
2023-04-02T00:10:39.214Z,6.33
2023-04-02T00:13:41.719Z,6.30
2023-04-02T00:16:29.835Z,4.85
2023-04-02T00:19:25.747Z,5.37
2023-04-02T00:22:25.145Z,5.08
2023-04-02T00:25:14.859Z,4.00
2023-04-02T00:28:03.533Z,5.00
2023-04-02T00:31:00.336Z,4.95
2023-04-02T00:33:49.006Z,5.10
2023-04-02T00:36:37.563Z,4.05
2023-04-02T00:39:33.605Z,5.22
2023-04-02T00:42:22.115Z,6.45
2023-04-02T00:45:12.576Z,3.77
2023-04-02T00:48:02.899Z,4.22
2023-04-02T00:50:51.553Z,7.12
2023-04-02T00:53:39.712Z,5.78
2023-04-02T00:56:33.149Z,4.00
2023-04-02T00:59:38.774Z,5.17
2023-04-02T01:02:29.519Z,4.08
2023-04-02T01:05:20.283Z,5.00
2023-04-02T01:08:16.789Z,4.67
2023-04-02T01:11:06.920Z,4.07
2023-04-02T01:14:09.476Z,4.87
2023-04-02T01:17:06.019Z,6.78
2023-04-02T01:20:26.567Z,5.72
2023-04-02T01:23:24.071Z,4.25
2023-04-02T01:26:19.834Z,4.50
2023-04-02T01:29:15.929Z,3.00
2023-04-02T01:32:06.517Z,4.33
2023-04-02T01:34:53.928Z,3.55
2023-04-02T01:37:52.622Z,3.87
2023-04-02T01:40:55.139Z,3.42
2023-04-02T01:43:54.195Z,4.70
2023-04-02T01:46:44.735Z,4.08
2023-04-02T01:49:31.959Z,5.17
2023-04-02T01:52:22.511Z,2.12
2023-04-02T01:55:12.958Z,4.75
2023-04-02T01:58:01.792Z,5.70
2023-04-02T02:00:57.771Z,4.05
2023-04-02T02:03:46.050Z,2.77
2023-04-02T02:06:33.578Z,2.45
2023-04-02T02:09:23.884Z,4.55
2023-04-02T02:12:14.441Z,3.65
2023-04-02T02:15:01.679Z,3.30
2023-04-02T02:17:50.707Z,3.27
2023-04-02T02:20:38.333Z,3.70
2023-04-02T02:23:27.658Z,5.30
2023-04-02T02:26:16.006Z,3.70
2023-04-02T02:29:06.762Z,7.60
2023-04-02T02:31:56.671Z,4.75
2023-04-02T02:34:53.180Z,4.17
2023-04-02T02:37:46.882Z,5.33
2023-04-02T02:40:37.532Z,5.05
2023-04-02T02:43:25.526Z,6.55
2023-04-02T02:46:15.979Z,4.72
2023-04-02T02:49:05.551Z,4.47
2023-04-02T02:52:11.006Z,5.03
2023-04-02T02:55:04.550Z,4.12
2023-04-02T02:57:58.266Z,5.60
2023-04-02T03:00:46.494Z,6.05
2023-04-02T03:03:35.328Z,5.90
2023-04-02T03:06:22.980Z,6.25
2023-04-02T03:09:22.724Z,4.37
2023-04-02T03:12:31.096Z,8.05
2023-04-02T03:15:41.184Z,5.83
2023-04-02T03:18:40.613Z,7.45
2023-04-02T03:21:49.353Z,5.55
2023-04-02T03:24:48.164Z,5.85
2023-04-02T03:27:41.288Z,6.62
2023-04-02T03:30:39.878Z,6.17
2023-04-02T03:33:42.630Z,5.28
2023-04-02T03:36:32.712Z,5.65
2023-04-02T03:39:23.927Z,7.30
2023-04-02T03:42:19.595Z,4.65
2023-04-02T03:45:13.233Z,5.58
2023-04-02T03:48:03.648Z,5.47
2023-04-02T03:51:03.294Z,4.90
2023-04-02T03:53:50.861Z,6.28
2023-04-02T03:56:41.843Z,6.40
2023-04-02T03:59:41.326Z,5.30
2023-04-02T04:02:37.500Z,5.40
2023-04-02T04:05:27.879Z,6.60
2023-04-02T04:08:18.114Z,6.20
2023-04-02T04:11:08.496Z,5.03
2023-04-02T04:14:19.150Z,6.17
2023-04-02T04:17:13.884Z,6.87
2023-04-02T04:20:06.001Z,4.55
2023-04-02T04:22:57.989Z,9.15
2023-04-02T04:25:45.662Z,6.40
2023-04-02T04:28:37.697Z,5.35
2023-04-02T04:31:35.696Z,5.80
2023-04-02T04:34:36.835Z,5.97
2023-04-02T04:37:31.546Z,6.05
2023-04-02T04:40:25.154Z,6.83
2023-04-02T04:43:15.850Z,7.95
2023-04-02T04:46:06.188Z,9.58
2023-04-02T04:49:07.918Z,8.80
2023-04-02T04:52:19.217Z,11.60
2023-04-02T04:55:25.948Z,11.43
2023-04-02T04:58:34.836Z,9.13
2023-04-02T05:01:49.536Z,6.47
2023-04-02T05:04:40.311Z,9.63
2023-04-02T05:07:30.597Z,9.10
2023-04-02T05:10:21.002Z,6.78
2023-04-02T05:13:23.441Z,8.50
2023-04-02T05:16:19.830Z,11.70
2023-04-02T05:19:12.917Z,20.57
2023-04-02T05:22:20.721Z,13.35
2023-04-02T05:25:26.121Z,9.30
2023-04-02T05:28:16.666Z,11.28
2023-04-02T05:31:38.974Z,11.73
2023-04-02T05:34:29.480Z,9.45
2023-04-02T05:37:19.742Z,6.67
2023-04-02T05:40:16.304Z,4.37
2023-04-02T05:43:06.708Z,3.95
2023-04-02T05:46:00.259Z,4.83
2023-04-02T05:48:51.111Z,4.58
2023-04-02T05:51:44.419Z,4.08
2023-04-02T05:54:40.956Z,5.42
2023-04-02T05:57:44.579Z,9.23
2023-04-02T06:00:35.411Z,8.78
2023-04-02T06:03:27.330Z,7.70
2023-04-02T06:06:23.509Z,11.40
2023-04-02T06:09:31.853Z,6.40
2023-04-02T06:12:31.049Z,2.65
2023-04-02T06:15:21.490Z,1.02
2023-04-02T06:18:21.319Z,1.52
2023-04-02T06:21:09.754Z,2.58
2023-04-02T06:24:02.992Z,0.82
2023-04-02T06:26:57.608Z,1.05
2023-04-02T06:29:47.303Z,0.65
2023-04-02T06:32:34.928Z,0.42
2023-04-02T06:35:22.381Z,1.25
2023-04-02T06:38:12.932Z,0.93
2023-04-02T06:41:03.791Z,2.12
2023-04-02T06:44:00.641Z,1.10
2023-04-02T06:46:52.585Z,1.62
2023-04-02T06:49:46.214Z,2.33
2023-04-02T06:52:48.642Z,0.85
2023-04-02T06:55:51.421Z,0.88
2023-04-02T06:58:38.834Z,0.80
2023-04-02T07:01:29.494Z,2.02
2023-04-02T07:04:17.269Z,0.85
2023-04-02T07:07:04.366Z,1.70
2023-04-02T07:09:51.930Z,0.55
2023-04-02T07:12:39.584Z,2.05
2023-04-02T07:15:27.443Z,0.80
2023-04-02T07:18:24.926Z,0.90
2023-04-02T07:23:58.946Z,0.50
2023-04-02T07:26:47.764Z,0.70
2023-04-02T07:29:35.249Z,1.00
2023-04-02T07:32:22.600Z,0.80
2023-04-02T07:35:10.752Z,0.70
2023-04-02T07:37:58.244Z,0.60
2023-04-02T07:40:45.868Z,0.70
2023-04-02T07:43:33.823Z,0.60
2023-04-02T07:46:21.292Z,1.00
2023-04-02T07:49:08.805Z,2.55
2023-04-02T07:51:56.089Z,0.95
2023-04-02T07:54:43.771Z,1.20
2023-04-02T07:57:31.323Z,0.50
2023-04-02T08:00:19.428Z,0.60
2023-04-02T08:03:06.901Z,3.02
2023-04-02T08:05:57.039Z,0.75
2023-04-02T08:08:44.436Z,0.82
2023-04-02T08:11:32.135Z,0.57
2023-04-02T08:14:19.608Z,0.75
2023-04-02T08:17:07.232Z,2.55
2023-04-02T08:19:56.134Z,1.20
2023-04-02T08:22:43.789Z,0.62
2023-04-02T08:25:31.321Z,0.50
2023-04-02T08:28:18.833Z,0.60
2023-04-02T08:31:07.653Z,0.82
2023-04-02T08:33:56.731Z,0.40
2023-04-02T08:36:46.191Z,0.62
2023-04-02T08:39:35.088Z,0.90
2023-04-02T08:42:34.383Z,0.50
2023-04-02T08:45:39.515Z,0.60
2023-04-02T08:48:26.991Z,0.70
2023-04-02T08:51:29.915Z,0.60
2023-04-02T08:54:31.898Z,2.02
2023-04-02T08:57:34.040Z,0.60
2023-04-02T09:00:33.372Z,0.72
2023-04-02T09:03:32.412Z,6.72
2023-04-02T09:06:20.731Z,0.80
2023-04-02T09:09:09.797Z,0.70
2023-04-02T09:12:03.923Z,1.00
2023-04-02T09:15:02.483Z,1.00
2023-04-02T09:17:54.072Z,1.35
2023-04-02T09:20:38.565Z,1.05
2023-04-02T09:23:28.097Z,1.25
2023-04-02T09:26:24.258Z,1.22
2023-04-02T09:29:26.132Z,1.75
2023-04-02T09:32:34.867Z,1.42
2023-04-02T09:35:26.561Z,2.27
2023-04-02T09:38:33.204Z,1.55
2023-04-02T09:41:22.415Z,2.93
2023-04-02T09:44:15.475Z,1.40
2023-04-02T09:47:06.010Z,1.82
2023-04-02T09:49:53.204Z,2.02
2023-04-02T09:52:40.523Z,2.00
2023-04-02T09:55:32.003Z,1.45
2023-04-02T09:58:19.760Z,1.35
2023-04-02T10:01:08.452Z,4.60
2023-04-02T10:03:56.312Z,2.30
2023-04-02T10:06:46.966Z,1.55
2023-04-02T10:09:39.082Z,1.82
2023-04-02T10:12:29.806Z,2.40
2023-04-02T10:15:20.372Z,1.70
2023-04-02T10:18:10.910Z,2.15
2023-04-02T10:21:01.407Z,2.12
2023-04-02T10:23:48.847Z,1.77
2023-04-02T10:26:39.301Z,1.75
2023-04-02T10:29:42.091Z,2.45
2023-04-02T10:32:41.348Z,1.92
2023-04-02T10:35:40.412Z,1.50
2023-04-02T10:38:46.058Z,5.85
2023-04-02T10:41:42.306Z,1.10
2023-04-02T10:44:37.481Z,3.40
2023-04-02T10:47:33.493Z,4.47
2023-04-02T10:50:31.055Z,1.27
2023-04-02T10:53:21.269Z,2.22
2023-04-02T10:56:12.271Z,3.10
2023-04-02T10:59:18.013Z,1.67
2023-04-02T11:02:08.560Z,1.35
2023-04-02T11:05:01.174Z,1.65
2023-04-02T11:08:00.705Z,1.60
2023-04-02T11:10:50.869Z,2.77
2023-04-02T11:13:44.361Z,2.92
2023-04-02T11:16:31.993Z,1.95
2023-04-02T11:19:22.988Z,2.27
2023-04-02T11:22:22.300Z,1.40
2023-04-02T11:25:12.908Z,2.40
2023-04-02T11:28:03.108Z,1.52
2023-04-02T11:30:50.458Z,1.70
2023-04-02T11:33:46.016Z,3.25
2023-04-02T11:36:54.879Z,1.65
2023-04-02T11:39:58.214Z,2.37
2023-04-02T11:42:52.719Z,2.75
2023-04-02T11:45:53.404Z,1.95
2023-04-02T11:48:41.401Z,1.32
2023-04-02T11:51:37.892Z,2.35
2023-04-02T11:54:28.298Z,1.90
2023-04-02T11:57:28.208Z,2.15
2023-04-02T12:00:24.499Z,1.87
2023-04-02T12:03:47.924Z,2.12
2023-04-02T12:07:03.689Z,1.98
2023-04-02T12:10:00.069Z,2.77
2023-04-02T12:12:48.964Z,1.98
2023-04-02T12:15:39.281Z,1.72
2023-04-02T12:18:26.792Z,3.40
2023-04-02T12:21:23.013Z,2.20
2023-04-02T12:24:13.405Z,3.12
2023-04-02T12:27:15.771Z,1.90
2023-04-02T12:30:15.329Z,2.20
2023-04-02T12:33:22.154Z,2.92
2023-04-02T12:36:15.557Z,2.52
2023-04-02T12:39:03.416Z,1.80
2023-04-02T12:41:50.829Z,3.22
2023-04-02T12:44:38.193Z,2.22
2023-04-02T12:47:25.962Z,6.20
2023-04-02T12:50:16.194Z,4.15
2023-04-02T12:53:03.544Z,3.25
2023-04-02T12:55:53.100Z,2.90
2023-04-02T12:58:43.056Z,2.00
2023-04-02T13:01:33.668Z,2.98
2023-04-02T13:04:22.075Z,2.67
2023-04-02T13:07:12.418Z,6.25
2023-04-02T13:10:10.376Z,4.78
2023-04-02T13:13:00.346Z,3.22
2023-04-02T13:15:51.156Z,4.03
2023-04-02T13:18:39.399Z,4.30
2023-04-02T13:21:28.523Z,4.92
2023-04-02T13:24:30.950Z,3.00
2023-04-02T13:27:19.584Z,4.72
2023-04-02T13:30:11.696Z,4.87
2023-04-02T13:32:59.089Z,3.45
2023-04-02T13:35:46.735Z,4.35
2023-04-02T13:38:33.982Z,4.15
2023-04-02T13:41:30.459Z,4.08
2023-04-02T13:44:24.149Z,4.90
2023-04-02T13:47:14.859Z,4.28
2023-04-02T13:50:02.124Z,6.67
2023-04-02T13:52:53.427Z,5.92
2023-04-02T13:55:43.578Z,5.87
2023-04-02T13:58:30.898Z,5.72
2023-04-02T14:01:20.762Z,4.78
2023-04-02T14:04:09.802Z,7.10
2023-04-02T14:07:03.293Z,6.12
2023-04-02T14:10:06.252Z,3.17
2023-04-02T14:13:16.594Z,4.97
2023-04-02T14:16:16.289Z,5.17
2023-04-02T14:19:18.835Z,4.47
2023-04-02T14:22:09.140Z,4.80
2023-04-02T14:25:18.636Z,6.12
2023-04-02T14:28:09.024Z,5.20
2023-04-02T14:30:59.541Z,4.35
2023-04-02T14:33:58.957Z,6.45
2023-04-02T14:37:13.792Z,5.72
2023-04-02T14:40:19.606Z,3.77
2023-04-02T14:43:29.337Z,5.62
2023-04-02T14:46:16.722Z,7.20
2023-04-02T14:49:31.631Z,5.00
2023-04-02T14:52:22.089Z,7.78
2023-04-02T14:55:21.416Z,7.15
2023-04-02T14:58:17.343Z,6.60
2023-04-02T15:01:14.021Z,7.03
2023-04-02T15:04:07.267Z,5.67
2023-04-02T15:06:57.611Z,6.95
2023-04-02T15:09:48.048Z,7.12
2023-04-02T15:12:38.452Z,5.33
2023-04-02T15:15:44.023Z,5.17
2023-04-02T15:18:31.280Z,4.00
2023-04-02T15:21:29.345Z,4.58
2023-04-02T15:24:22.706Z,3.92
2023-04-02T15:27:31.435Z,5.25
2023-04-02T15:30:27.333Z,4.83
2023-04-02T15:33:44.997Z,5.70
2023-04-02T15:36:44.285Z,3.95
2023-04-02T15:39:43.717Z,7.17
2023-04-02T15:42:34.053Z,5.30
2023-04-02T15:45:27.290Z,3.85
2023-04-02T15:48:32.368Z,5.35
2023-04-02T15:51:34.453Z,4.50
2023-04-02T15:54:36.570Z,3.12
2023-04-02T15:57:34.081Z,3.33
2023-04-02T16:00:28.061Z,4.28
2023-04-02T16:03:30.219Z,5.37
2023-04-02T16:06:32.723Z,6.78
2023-04-02T16:09:32.039Z,5.15
2023-04-02T16:12:21.625Z,4.08
2023-04-02T16:15:22.941Z,5.25
2023-04-02T16:18:13.237Z,3.75
2023-04-02T16:21:03.878Z,6.12
2023-04-02T16:23:51.566Z,6.30
2023-04-02T16:26:54.224Z,5.30
2023-04-02T16:30:02.721Z,5.00
2023-04-02T16:33:17.259Z,6.70
2023-04-02T16:36:22.888Z,4.00
2023-04-02T16:39:24.986Z,8.18
2023-04-02T16:42:29.941Z,3.85
2023-04-02T16:45:32.920Z,5.47
2023-04-02T16:48:29.090Z,3.60
2023-04-02T16:51:26.229Z,3.05
2023-04-02T16:54:16.328Z,4.45
2023-04-02T16:57:12.667Z,5.12
2023-04-02T17:00:14.681Z,3.90
2023-04-02T17:03:16.823Z,7.20
2023-04-02T17:06:15.627Z,4.30
2023-04-02T17:09:06.008Z,5.40
2023-04-02T17:12:10.742Z,6.67
2023-04-02T17:15:01.139Z,6.12
2023-04-02T17:17:48.430Z,6.92
2023-04-02T17:20:35.911Z,5.58
2023-04-02T17:23:25.032Z,4.60
2023-04-02T17:26:14.399Z,5.17
2023-04-02T17:29:05.121Z,7.03
2023-04-02T17:31:54.511Z,5.42
2023-04-02T17:34:41.673Z,5.22
2023-04-02T17:37:53.537Z,4.22
2023-04-02T17:40:43.885Z,5.78
2023-04-02T17:43:46.419Z,5.17
2023-04-02T17:46:39.669Z,5.67
2023-04-02T17:49:42.155Z,5.05
2023-04-02T17:52:41.390Z,5.80
2023-04-02T17:55:50.072Z,4.58
2023-04-02T17:59:03.197Z,3.95
2023-04-02T18:01:59.728Z,6.42
2023-04-02T18:04:58.565Z,10.03
2023-04-02T18:08:05.600Z,5.00
2023-04-02T18:10:55.799Z,6.40
2023-04-02T18:13:52.380Z,6.00
2023-04-02T18:16:51.967Z,4.45
2023-04-02T18:19:57.422Z,4.72
2023-04-02T18:22:47.713Z,5.60
2023-04-02T18:25:56.376Z,6.35
2023-04-02T18:29:06.474Z,6.75
2023-04-02T18:32:11.044Z,7.03
2023-04-02T18:35:13.410Z,4.17
2023-04-02T18:38:15.841Z,6.60
2023-04-02T18:41:15.672Z,7.67
2023-04-02T18:44:17.814Z,4.83
2023-04-02T18:47:07.895Z,4.67
2023-04-02T18:50:19.263Z,5.67
2023-04-02T18:53:14.998Z,5.53
2023-04-02T18:56:17.612Z,4.90
2023-04-02T18:59:23.021Z,5.25
2023-04-02T19:02:28.135Z,4.58
2023-04-02T19:05:33.230Z,5.33
2023-04-02T19:08:35.249Z,3.37
2023-04-02T19:11:26.240Z,4.70
2023-04-02T19:14:15.987Z,2.90
2023-04-02T19:17:14.321Z,4.12
2023-04-02T19:20:30.963Z,3.95
2023-04-02T19:23:33.975Z,5.33
2023-04-02T19:26:24.494Z,4.40
2023-04-02T19:29:39.244Z,6.22
2023-04-02T19:32:50.572Z,5.12
2023-04-02T19:35:44.306Z,4.20
2023-04-02T19:38:58.755Z,7.97
2023-04-02T19:41:48.956Z,4.85
2023-04-02T19:44:38.681Z,2.67
2023-04-02T19:47:26.450Z,3.67
2023-04-02T19:50:13.932Z,7.72
2023-04-02T19:53:01.076Z,3.83
2023-04-02T19:55:48.622Z,4.45
2023-04-02T19:58:37.077Z,3.67
2023-04-02T20:01:24.822Z,4.80
2023-04-02T20:04:12.355Z,3.60
2023-04-02T20:06:59.693Z,3.98
2023-04-02T20:09:46.791Z,3.12
2023-04-02T20:12:34.036Z,3.62
2023-04-02T20:15:21.206Z,4.22
2023-04-02T20:18:10.593Z,4.40
2023-04-02T20:20:58.715Z,3.75
2023-04-02T20:23:46.629Z,4.08
2023-04-02T20:26:35.112Z,4.15
2023-04-02T20:29:24.588Z,3.87
2023-04-02T20:32:12.913Z,3.87
2023-04-02T20:35:00.551Z,4.80
2023-04-02T20:37:47.843Z,5.40
2023-04-02T20:40:35.860Z,5.85
2023-04-02T20:43:23.214Z,3.30
2023-04-02T20:46:12.574Z,8.45
2023-04-02T20:49:00.168Z,3.98
2023-04-02T20:51:48.561Z,4.70
2023-04-02T20:54:36.285Z,3.77
2023-04-02T20:57:25.443Z,4.47
2023-04-02T21:00:13.455Z,3.90
2023-04-02T21:03:01.326Z,2.30
2023-04-02T21:05:49.062Z,4.05
2023-04-02T21:08:37.795Z,3.92
2023-04-02T21:11:26.105Z,4.17
2023-04-02T21:14:13.474Z,6.58
2023-04-02T21:17:00.853Z,2.37
2023-04-02T21:19:48.251Z,4.08
2023-04-02T21:22:35.701Z,4.50
2023-04-02T21:25:23.194Z,2.25
2023-04-02T21:28:10.246Z,2.92
2023-04-02T21:31:06.434Z,3.30
2023-04-02T21:33:55.950Z,4.95
2023-04-02T21:36:45.850Z,3.58
2023-04-02T21:39:34.189Z,5.97
2023-04-02T21:42:22.325Z,4.10
2023-04-02T21:45:09.570Z,4.17
2023-04-02T21:47:56.789Z,4.60
2023-04-02T21:50:46.155Z,3.52
2023-04-02T21:53:34.732Z,5.65
2023-04-02T21:56:24.531Z,2.00
2023-04-02T21:59:13.996Z,3.70
2023-04-02T22:02:01.131Z,2.08
2023-04-02T22:04:48.723Z,5.45
2023-04-02T22:07:36.172Z,4.22
2023-04-02T22:10:23.629Z,1.87
2023-04-02T22:13:11.161Z,3.00
2023-04-02T22:16:05.671Z,2.75
2023-04-02T22:18:55.558Z,4.55
2023-04-02T22:21:43.408Z,5.12
2023-04-02T22:24:30.743Z,3.47
2023-04-02T22:27:18.360Z,4.90
2023-04-02T22:30:06.907Z,2.47
2023-04-02T22:32:54.061Z,3.50
2023-04-02T22:35:41.446Z,4.37
2023-04-02T22:38:29.237Z,4.08
2023-04-02T22:41:19.474Z,5.45
2023-04-02T22:44:06.911Z,5.12
2023-04-02T22:46:54.147Z,4.55
2023-04-02T22:49:41.762Z,6.37
2023-04-02T22:52:30.885Z,5.08
2023-04-02T22:55:19.629Z,4.58
2023-04-02T22:58:06.775Z,6.00
2023-04-02T23:00:53.981Z,6.47
2023-04-02T23:03:41.919Z,4.08
2023-04-02T23:06:29.450Z,5.90
2023-04-02T23:09:16.526Z,6.45
2023-04-02T23:12:03.908Z,3.02
2023-04-02T23:14:51.143Z,5.60
2023-04-02T23:17:38.708Z,3.65
2023-04-02T23:20:26.315Z,3.47
2023-04-02T23:23:14.022Z,3.40
2023-04-02T23:26:10.193Z,5.00
2023-04-02T23:28:58.864Z,3.27
2023-04-02T23:31:46.572Z,4.00
2023-04-02T23:34:33.642Z,4.87
2023-04-02T23:37:21.157Z,3.58
2023-04-02T23:40:10.415Z,3.17
2023-04-02T23:42:58.050Z,3.72
2023-04-02T23:45:50.579Z,5.42
2023-04-02T23:48:37.885Z,2.67
2023-04-02T23:51:26.180Z,3.52
2023-04-02T23:54:14.485Z,2.30
2023-04-02T23:57:01.955Z,2.42
2023-04-02T23:59:49.416Z,3.42
